UAL280 KMEM-KABQ
Flight info
| Callsign | UAL280 |
|---|---|
| Flight time | N/A |
| Altitude | 38000 |
| Route | ZUMIT5 FOXOM FSM IRW J78 TCC KIIDD COLTR4 |
| Aircraft | B752/M-SDE2E3FGHIJ3J4J7RWXY/LB1 |
Departure
| Time | 2026-05-04 00:48 |
|---|---|
| Airport | Memphis International Airport (KMEM) |
Arrival
| Time | N/A |
|---|---|
| Airport | Albuquerque International Sunport (KABQ) |
| Time | Latitude | Longitude | Altitude | Speed | Heading |
|---|---|---|---|---|---|
| 2026-05-04 00:31 | 35.04245 | -89.97938 | 346 ft | 0 kts | 350° |
| 2026-05-04 00:37 | 35.04240 | -89.97938 | 346 ft | 2 kts | 350° |
| 2026-05-04 00:37 | 35.04225 | -89.97934 | 346 ft | 2 kts | 349° |
| 2026-05-04 00:37 | 35.04210 | -89.97931 | 346 ft | 2 kts | 348° |
| 2026-05-04 00:38 | 35.04196 | -89.97933 | 345 ft | 2 kts | 37° |
| 2026-05-04 00:38 | 35.04187 | -89.97948 | 346 ft | 2 kts | 78° |
| 2026-05-04 00:38 | 35.04188 | -89.97966 | 346 ft | 2 kts | 119° |
| 2026-05-04 00:38 | 35.04198 | -89.97979 | 346 ft | 2 kts | 136° |
| 2026-05-04 00:39 | 35.04203 | -89.97985 | 346 ft | 0 kts | 131° |
| 2026-05-04 00:42 | 35.04196 | -89.97974 | 346 ft | 2 kts | 122° |
| 2026-05-04 00:42 | 35.04191 | -89.97949 | 346 ft | 3 kts | 92° |
| 2026-05-04 00:42 | 35.04185 | -89.97910 | 346 ft | 5 kts | 106° |
| 2026-05-04 00:43 | 35.04185 | -89.97872 | 346 ft | 4 kts | 85° |
| 2026-05-04 00:43 | 35.04188 | -89.97826 | 346 ft | 5 kts | 85° |
| 2026-05-04 00:43 | 35.04194 | -89.97779 | 346 ft | 4 kts | 64° |
| 2026-05-04 00:43 | 35.04218 | -89.97752 | 346 ft | 4 kts | 20° |
| 2026-05-04 00:44 | 35.04259 | -89.97744 | 346 ft | 8 kts | 5° |
| 2026-05-04 00:44 | 35.04321 | -89.97742 | 346 ft | 8 kts | 359° |
| 2026-05-04 00:44 | 35.04379 | -89.97742 | 346 ft | 7 kts | 359° |
| 2026-05-04 00:44 | 35.04430 | -89.97744 | 346 ft | 7 kts | 358° |
| 2026-05-04 00:45 | 35.04478 | -89.97746 | 346 ft | 6 kts | 358° |
| 2026-05-04 00:45 | 35.04526 | -89.97747 | 346 ft | 6 kts | 358° |
| 2026-05-04 00:45 | 35.04541 | -89.97748 | 346 ft | 6 kts | 358° |
| 2026-05-04 00:45 | 35.04555 | -89.97748 | 346 ft | 6 kts | 358° |
| 2026-05-04 00:46 | 35.04601 | -89.97749 | 346 ft | 6 kts | 358° |
| 2026-05-04 00:46 | 35.04669 | -89.97752 | 346 ft | 14 kts | 358° |
| 2026-05-04 00:46 | 35.04798 | -89.97758 | 346 ft | 22 kts | 357° |
| 2026-05-04 00:46 | 35.04987 | -89.97757 | 346 ft | 31 kts | 0° |
| 2026-05-04 00:47 | 35.05211 | -89.97763 | 346 ft | 31 kts | 357° |
| 2026-05-04 00:47 | 35.05375 | -89.97777 | 346 ft | 19 kts | 352° |
| 2026-05-04 00:47 | 35.05447 | -89.97712 | 346 ft | 13 kts | 85° |
| 2026-05-04 00:47 | 35.05408 | -89.97623 | 346 ft | 12 kts | 156° |
| 2026-05-04 00:48 | 35.05313 | -89.97613 | 346 ft | 27 kts | 179° |
| 2026-05-04 00:48 | 35.04814 | -89.97602 | 346 ft | 114 kts | 179° |
| 2026-05-04 00:48 | 35.03809 | -89.97574 | 585 ft | 165 kts | 184° |
| 2026-05-04 00:48 | 35.02534 | -89.97588 | 1146 ft | 206 kts | 181° |
| 2026-05-04 00:49 | 35.00950 | -89.97543 | 1731 ft | 250 kts | 181° |
| 2026-05-04 00:49 | 34.99109 | -89.97817 | 2301 ft | 284 kts | 204° |
| 2026-05-04 00:49 | 34.97459 | -89.98933 | 3595 ft | 266 kts | 213° |
| 2026-05-04 00:49 | 34.95907 | -90.00043 | 4525 ft | 261 kts | 218° |
| 2026-05-04 00:50 | 34.94700 | -90.01688 | 5206 ft | 260 kts | 247° |
| 2026-05-04 00:50 | 34.94312 | -90.03793 | 5939 ft | 260 kts | 269° |
| 2026-05-04 00:50 | 34.94267 | -90.05994 | 6680 ft | 263 kts | 269° |
| 2026-05-04 00:50 | 34.94220 | -90.08308 | 6790 ft | 277 kts | 270° |
| 2026-05-04 00:51 | 34.94354 | -90.10598 | 6781 ft | 266 kts | 288° |
| 2026-05-04 00:51 | 34.95049 | -90.12604 | 7120 ft | 247 kts | 295° |
| 2026-05-04 00:51 | 34.95733 | -90.14417 | 8107 ft | 234 kts | 295° |
| 2026-05-04 00:51 | 34.96415 | -90.16192 | 8907 ft | 229 kts | 296° |
| 2026-05-04 00:52 | 34.97093 | -90.17924 | 9626 ft | 226 kts | 296° |
| 2026-05-04 00:52 | 34.97753 | -90.19600 | 10338 ft | 220 kts | 296° |
| 2026-05-04 00:52 | 34.98357 | -90.21314 | 10838 ft | 226 kts | 294° |
| 2026-05-04 00:52 | 34.98989 | -90.23154 | 11054 ft | 245 kts | 295° |
| 2026-05-04 00:53 | 34.99685 | -90.25162 | 11318 ft | 263 kts | 295° |
| 2026-05-04 00:53 | 35.00417 | -90.27291 | 11581 ft | 281 kts | 294° |
| 2026-05-04 00:53 | 35.01188 | -90.29530 | 11841 ft | 299 kts | 294° |
| 2026-05-04 00:53 | 35.02021 | -90.31947 | 12143 ft | 317 kts | 294° |
| 2026-05-04 00:54 | 35.02922 | -90.34515 | 12324 ft | 336 kts | 296° |
| 2026-05-04 00:54 | 35.03941 | -90.37133 | 12738 ft | 348 kts | 297° |
| 2026-05-04 00:54 | 35.04966 | -90.39776 | 13539 ft | 348 kts | 297° |
| 2026-05-04 00:54 | 35.06013 | -90.42477 | 14229 ft | 351 kts | 297° |
| 2026-05-04 00:55 | 35.07055 | -90.45175 | 14912 ft | 353 kts | 297° |
| 2026-05-04 00:55 | 35.08107 | -90.47890 | 15543 ft | 356 kts | 297° |
| 2026-05-04 00:55 | 35.09164 | -90.50629 | 16204 ft | 357 kts | 297° |
| 2026-05-04 00:55 | 35.10221 | -90.53368 | 16832 ft | 359 kts | 297° |
| 2026-05-04 00:56 | 35.11284 | -90.56124 | 17429 ft | 361 kts | 297° |
| 2026-05-04 00:56 | 35.12357 | -90.58909 | 17975 ft | 364 kts | 297° |
| 2026-05-04 00:56 | 35.13438 | -90.61719 | 18556 ft | 365 kts | 297° |
| 2026-05-04 00:56 | 35.14510 | -90.64506 | 19060 ft | 368 kts | 297° |
| 2026-05-04 00:57 | 35.15607 | -90.67363 | 19566 ft | 372 kts | 296° |
| 2026-05-04 00:57 | 35.16708 | -90.70230 | 20109 ft | 373 kts | 296° |
| 2026-05-04 00:57 | 35.17619 | -90.73232 | 20616 ft | 379 kts | 286° |
| 2026-05-04 00:57 | 35.18027 | -90.76434 | 21135 ft | 384 kts | 276° |
| 2026-05-04 00:58 | 35.18111 | -90.79719 | 21627 ft | 387 kts | 274° |
| 2026-05-04 00:58 | 35.18186 | -90.83009 | 22133 ft | 390 kts | 274° |
| 2026-05-04 00:58 | 35.18254 | -90.86326 | 22573 ft | 393 kts | 274° |
| 2026-05-04 00:58 | 35.18313 | -90.89643 | 23108 ft | 394 kts | 274° |
| 2026-05-04 00:59 | 35.18368 | -90.92934 | 23519 ft | 398 kts | 274° |
| 2026-05-04 00:59 | 35.18422 | -90.96339 | 24110 ft | 397 kts | 274° |
| 2026-05-04 00:59 | 35.18474 | -90.99726 | 24494 ft | 400 kts | 274° |
| 2026-05-04 00:59 | 35.18584 | -91.03091 | 25024 ft | 398 kts | 278° |
| 2026-05-04 01:00 | 35.18868 | -91.06465 | 25359 ft | 402 kts | 278° |
| 2026-05-04 01:00 | 35.19142 | -91.09900 | 25802 ft | 403 kts | 278° |
| 2026-05-04 01:00 | 35.19408 | -91.13322 | 26213 ft | 404 kts | 278° |
| 2026-05-04 01:00 | 35.19670 | -91.16734 | 26613 ft | 406 kts | 278° |
| 2026-05-04 01:01 | 35.19928 | -91.20151 | 27018 ft | 407 kts | 278° |
| 2026-05-04 01:01 | 35.20186 | -91.23592 | 27413 ft | 408 kts | 278° |
| 2026-05-04 01:01 | 35.20443 | -91.27055 | 27744 ft | 411 kts | 278° |
| 2026-05-04 01:01 | 35.20700 | -91.30530 | 28128 ft | 412 kts | 278° |
| 2026-05-04 01:02 | 35.20959 | -91.34051 | 28453 ft | 414 kts | 278° |
| 2026-05-04 01:02 | 35.21214 | -91.37540 | 28824 ft | 415 kts | 278° |
| 2026-05-04 01:02 | 35.21471 | -91.41069 | 29174 ft | 416 kts | 278° |
| 2026-05-04 01:02 | 35.21728 | -91.44605 | 29450 ft | 419 kts | 278° |
| 2026-05-04 01:03 | 35.21985 | -91.48167 | 29825 ft | 419 kts | 278° |
| 2026-05-04 01:03 | 35.22241 | -91.51726 | 30133 ft | 421 kts | 278° |
| 2026-05-04 01:03 | 35.22496 | -91.55283 | 30428 ft | 423 kts | 278° |
| 2026-05-04 01:03 | 35.22752 | -91.58873 | 30742 ft | 424 kts | 278° |
| 2026-05-04 01:04 | 35.23006 | -91.62456 | 30938 ft | 427 kts | 278° |
| 2026-05-04 01:04 | 35.23263 | -91.66087 | 31332 ft | 425 kts | 277° |
| 2026-05-04 01:04 | 35.23516 | -91.69687 | 31625 ft | 422 kts | 277° |
| 2026-05-04 01:04 | 35.23768 | -91.73295 | 32357 ft | 415 kts | 277° |
| 2026-05-04 01:05 | 35.24007 | -91.76754 | 33332 ft | 401 kts | 278° |
| 2026-05-04 01:05 | 35.24236 | -91.80081 | 34387 ft | 385 kts | 278° |
| 2026-05-04 01:05 | 35.24455 | -91.83250 | 35345 ft | 366 kts | 278° |
| 2026-05-04 01:05 | 35.24729 | -91.87246 | 36683 ft | 338 kts | 278° |
| 2026-05-04 01:06 | 35.24971 | -91.90801 | 38088 ft | 313 kts | 279° |
| 2026-05-04 01:06 | 35.25158 | -91.93469 | 37934 ft | 318 kts | 279° |
| 2026-05-04 01:06 | 35.25345 | -91.96188 | 38031 ft | 319 kts | 279° |
| 2026-05-04 01:07 | 35.25720 | -92.01673 | 37996 ft | 325 kts | 278° |
| 2026-05-04 01:07 | 35.26090 | -92.07172 | 37991 ft | 323 kts | 279° |
| 2026-05-04 01:08 | 35.26456 | -92.12646 | 37991 ft | 323 kts | 279° |
| 2026-05-04 01:08 | 35.26822 | -92.18143 | 37982 ft | 324 kts | 278° |
| 2026-05-04 01:09 | 35.27183 | -92.23608 | 37978 ft | 325 kts | 278° |
| 2026-05-04 01:09 | 35.27720 | -92.31821 | 37976 ft | 325 kts | 278° |
| 2026-05-04 01:10 | 35.28077 | -92.37337 | 37984 ft | 325 kts | 278° |
| 2026-05-04 01:10 | 35.28432 | -92.42841 | 37974 ft | 325 kts | 278° |
| 2026-05-04 01:11 | 35.28784 | -92.48349 | 37983 ft | 325 kts | 278° |
| 2026-05-04 01:11 | 35.29137 | -92.53906 | 37977 ft | 326 kts | 278° |
| 2026-05-04 01:12 | 35.29484 | -92.59412 | 37977 ft | 325 kts | 278° |
| 2026-05-04 01:12 | 35.29827 | -92.64910 | 37986 ft | 325 kts | 278° |
| 2026-05-04 01:13 | 35.30172 | -92.70451 | 37978 ft | 326 kts | 278° |
| 2026-05-04 01:13 | 35.30515 | -92.76010 | 37987 ft | 327 kts | 278° |
| 2026-05-04 01:14 | 35.30854 | -92.81567 | 37996 ft | 328 kts | 278° |
| 2026-05-04 01:14 | 35.31191 | -92.87123 | 37999 ft | 329 kts | 278° |
| 2026-05-04 01:15 | 35.31528 | -92.92715 | 37999 ft | 330 kts | 278° |
| 2026-05-04 01:15 | 35.31864 | -92.98338 | 38001 ft | 330 kts | 278° |
| 2026-05-04 01:16 | 35.32196 | -93.03938 | 37989 ft | 331 kts | 278° |
| 2026-05-04 01:16 | 35.32530 | -93.09602 | 37985 ft | 332 kts | 278° |
| 2026-05-04 01:17 | 35.32858 | -93.15234 | 37991 ft | 332 kts | 278° |
| 2026-05-04 01:17 | 35.33185 | -93.20885 | 37984 ft | 333 kts | 278° |
| 2026-05-04 01:18 | 35.33510 | -93.26533 | 37988 ft | 333 kts | 278° |
| 2026-05-04 01:18 | 35.33834 | -93.32227 | 37989 ft | 333 kts | 278° |
| 2026-05-04 01:19 | 35.34155 | -93.37904 | 37984 ft | 334 kts | 278° |
| 2026-05-04 01:19 | 35.34473 | -93.43576 | 37975 ft | 334 kts | 278° |
| 2026-05-04 01:20 | 35.34787 | -93.49258 | 37974 ft | 334 kts | 278° |
| 2026-05-04 01:20 | 35.35100 | -93.54930 | 37967 ft | 334 kts | 277° |
| 2026-05-04 01:21 | 35.35407 | -93.60558 | 37973 ft | 333 kts | 278° |
| 2026-05-04 01:21 | 35.35714 | -93.66223 | 37986 ft | 333 kts | 277° |
| 2026-05-04 01:22 | 35.36018 | -93.71878 | 37998 ft | 334 kts | 277° |
| 2026-05-04 01:22 | 35.36320 | -93.77563 | 37996 ft | 335 kts | 277° |
| 2026-05-04 01:23 | 35.36620 | -93.83256 | 37992 ft | 336 kts | 277° |
| 2026-05-04 01:23 | 35.36918 | -93.88973 | 37993 ft | 336 kts | 277° |
| 2026-05-04 01:24 | 35.37214 | -93.94688 | 37984 ft | 337 kts | 277° |
| 2026-05-04 01:24 | 35.37509 | -94.00447 | 37980 ft | 338 kts | 277° |
| 2026-05-04 01:25 | 35.37802 | -94.06194 | 37968 ft | 339 kts | 277° |
| 2026-05-04 01:25 | 35.38092 | -94.11959 | 37963 ft | 339 kts | 278° |
| 2026-05-04 01:26 | 35.38377 | -94.17703 | 37974 ft | 339 kts | 278° |
| 2026-05-04 01:26 | 35.38665 | -94.23492 | 37986 ft | 343 kts | 277° |
| 2026-05-04 01:27 | 35.38866 | -94.29355 | 37981 ft | 345 kts | 274° |
| 2026-05-04 01:27 | 35.38880 | -94.35199 | 37986 ft | 345 kts | 275° |
| 2026-05-04 01:28 | 35.38902 | -94.41087 | 37976 ft | 346 kts | 275° |
| 2026-05-04 01:28 | 35.38922 | -94.46977 | 37964 ft | 346 kts | 275° |
| 2026-05-04 01:29 | 35.38938 | -94.52853 | 37973 ft | 345 kts | 275° |
| 2026-05-04 01:29 | 35.38953 | -94.58732 | 37971 ft | 345 kts | 274° |
| 2026-05-04 01:30 | 35.38964 | -94.64625 | 37961 ft | 346 kts | 275° |
| 2026-05-04 01:30 | 35.38973 | -94.70492 | 37980 ft | 346 kts | 274° |
| 2026-05-04 01:31 | 35.38979 | -94.76388 | 37977 ft | 347 kts | 274° |
| 2026-05-04 01:31 | 35.38983 | -94.82316 | 37968 ft | 348 kts | 274° |
| 2026-05-04 01:32 | 35.38328 | -96.12897 | 38004 ft | 349 kts | 274° |
| 2026-05-04 01:32 | 35.37592 | -96.70582 | 37877 ft | 349 kts | 273° |
| 2026-05-04 01:33 | 35.36834 | -97.14119 | 38066 ft | 349 kts | 273° |